sensor_id;sensor_type;location;lat;lon;timestamp;temperature;humidity
69595;DHT22;56800;52.142;5.364;2023-02-28T00:01:26;3.00;70.00
69595;DHT22;56800;52.142;5.364;2023-02-28T00:03:53;2.90;70.00
69595;DHT22;56800;52.142;5.364;2023-02-28T00:06:20;3.00;70.00
69595;DHT22;56800;52.142;5.364;2023-02-28T00:08:47;2.90;70.00
69595;DHT22;56800;52.142;5.364;2023-02-28T00:11:15;3.00;70.10
69595;DHT22;56800;52.142;5.364;2023-02-28T00:13:45;3.00;70.10
69595;DHT22;56800;52.142;5.364;2023-02-28T00:16:19;3.00;70.10
69595;DHT22;56800;52.142;5.364;2023-02-28T00:18:46;3.00;70.20
69595;DHT22;56800;52.142;5.364;2023-02-28T00:21:15;3.00;70.20
69595;DHT22;56800;52.142;5.364;2023-02-28T00:23:43;3.00;70.20
69595;DHT22;56800;52.142;5.364;2023-02-28T00:26:10;3.10;70.30
69595;DHT22;56800;52.142;5.364;2023-02-28T00:28:37;3.10;70.30
69595;DHT22;56800;52.142;5.364;2023-02-28T00:31:04;3.10;70.40
69595;DHT22;56800;52.142;5.364;2023-02-28T00:33:31;3.10;70.40
69595;DHT22;56800;52.142;5.364;2023-02-28T00:36:10;3.10;70.50
69595;DHT22;56800;52.142;5.364;2023-02-28T00:38:38;3.20;70.60
69595;DHT22;56800;52.142;5.364;2023-02-28T00:41:05;3.20;70.50
69595;DHT22;56800;52.142;5.364;2023-02-28T00:43:34;3.20;70.50
69595;DHT22;56800;52.142;5.364;2023-02-28T00:46:01;3.20;70.50
69595;DHT22;56800;52.142;5.364;2023-02-28T00:48:28;3.20;70.60
69595;DHT22;56800;52.142;5.364;2023-02-28T00:50:55;3.20;70.60
69595;DHT22;56800;52.142;5.364;2023-02-28T00:53:21;3.30;70.60
69595;DHT22;56800;52.142;5.364;2023-02-28T00:55:49;3.30;70.70
69595;DHT22;56800;52.142;5.364;2023-02-28T00:58:16;3.30;71.50
69595;DHT22;56800;52.142;5.364;2023-02-28T01:00:43;3.30;70.80
69595;DHT22;56800;52.142;5.364;2023-02-28T01:03:09;3.30;70.80
69595;DHT22;56800;52.142;5.364;2023-02-28T01:05:36;3.40;70.90
69595;DHT22;56800;52.142;5.364;2023-02-28T01:08:03;3.40;70.90
69595;DHT22;56800;52.142;5.364;2023-02-28T01:10:29;3.40;70.90
69595;DHT22;56800;52.142;5.364;2023-02-28T01:12:58;3.40;70.90
69595;DHT22;56800;52.142;5.364;2023-02-28T01:15:24;3.50;71.00
69595;DHT22;56800;52.142;5.364;2023-02-28T01:17:51;3.50;71.00
69595;DHT22;56800;52.142;5.364;2023-02-28T01:20:18;3.50;71.00
69595;DHT22;56800;52.142;5.364;2023-02-28T01:22:45;3.50;71.00
69595;DHT22;56800;52.142;5.364;2023-02-28T01:25:12;3.60;71.10
69595;DHT22;56800;52.142;5.364;2023-02-28T01:27:39;3.60;71.10
69595;DHT22;56800;52.142;5.364;2023-02-28T01:30:07;3.60;71.00
69595;DHT22;56800;52.142;5.364;2023-02-28T01:32:34;3.60;71.10
69595;DHT22;56800;52.142;5.364;2023-02-28T01:35:01;3.60;71.00
69595;DHT22;56800;52.142;5.364;2023-02-28T01:37:28;3.70;71.10
69595;DHT22;56800;52.142;5.364;2023-02-28T01:39:55;3.70;71.10
69595;DHT22;56800;52.142;5.364;2023-02-28T01:42:22;3.70;71.10
69595;DHT22;56800;52.142;5.364;2023-02-28T01:44:59;3.70;71.10
69595;DHT22;56800;52.142;5.364;2023-02-28T01:47:30;3.70;71.10
69595;DHT22;56800;52.142;5.364;2023-02-28T01:49:58;3.70;71.10
69595;DHT22;56800;52.142;5.364;2023-02-28T01:52:26;3.70;71.00
69595;DHT22;56800;52.142;5.364;2023-02-28T01:54:56;3.80;71.10
69595;DHT22;56800;52.142;5.364;2023-02-28T01:57:32;3.80;71.10
69595;DHT22;56800;52.142;5.364;2023-02-28T02:00:10;3.80;71.20
69595;DHT22;56800;52.142;5.364;2023-02-28T02:02:41;3.80;71.10
69595;DHT22;56800;52.142;5.364;2023-02-28T02:05:12;3.80;71.10
69595;DHT22;56800;52.142;5.364;2023-02-28T02:07:43;3.80;71.10
69595;DHT22;56800;52.142;5.364;2023-02-28T02:10:17;3.80;71.10
69595;DHT22;56800;52.142;5.364;2023-02-28T02:16:04;3.80;71.20
69595;DHT22;56800;52.142;5.364;2023-02-28T02:18:49;3.80;71.10
69595;DHT22;56800;52.142;5.364;2023-02-28T02:21:37;3.80;71.10
69595;DHT22;56800;52.142;5.364;2023-02-28T02:26:58;3.80;71.00
69595;DHT22;56800;52.142;5.364;2023-02-28T02:35:25;3.70;71.00
69595;DHT22;56800;52.142;5.364;2023-02-28T02:40:32;3.70;71.10
69595;DHT22;56800;52.142;5.364;2023-02-28T02:43:39;3.70;71.10
69595;DHT22;56800;52.142;5.364;2023-02-28T02:46:14;3.80;71.20
69595;DHT22;56800;52.142;5.364;2023-02-28T02:48:42;3.70;71.20
69595;DHT22;56800;52.142;5.364;2023-02-28T02:51:14;3.80;71.20
69595;DHT22;56800;52.142;5.364;2023-02-28T02:53:47;3.80;71.20
69595;DHT22;56800;52.142;5.364;2023-02-28T02:56:19;3.80;71.30
69595;DHT22;56800;52.142;5.364;2023-02-28T02:58:49;3.80;71.20
69595;DHT22;56800;52.142;5.364;2023-02-28T03:01:22;3.80;71.20
69595;DHT22;56800;52.142;5.364;2023-02-28T03:03:57;3.80;71.20
69595;DHT22;56800;52.142;5.364;2023-02-28T03:06:25;3.80;71.30
69595;DHT22;56800;52.142;5.364;2023-02-28T03:08:53;3.80;71.30
69595;DHT22;56800;52.142;5.364;2023-02-28T03:11:20;3.80;71.30
69595;DHT22;56800;52.142;5.364;2023-02-28T03:17:04;3.80;71.40
69595;DHT22;56800;52.142;5.364;2023-02-28T03:19:45;3.80;71.40
69595;DHT22;56800;52.142;5.364;2023-02-28T03:27:32;3.90;71.70
69595;DHT22;56800;52.142;5.364;2023-02-28T03:30:27;3.90;71.70
69595;DHT22;56800;52.142;5.364;2023-02-28T03:33:04;3.90;71.70
69595;DHT22;56800;52.142;5.364;2023-02-28T03:35:36;3.90;71.70
69595;DHT22;56800;52.142;5.364;2023-02-28T03:38:51;3.90;71.80
69595;DHT22;56800;52.142;5.364;2023-02-28T03:43:36;4.00;71.90
69595;DHT22;56800;52.142;5.364;2023-02-28T03:46:09;4.00;71.90
69595;DHT22;56800;52.142;5.364;2023-02-28T03:48:47;3.90;71.90
69595;DHT22;56800;52.142;5.364;2023-02-28T03:51:17;4.00;72.00
69595;DHT22;56800;52.142;5.364;2023-02-28T03:53:50;4.00;72.00
69595;DHT22;56800;52.142;5.364;2023-02-28T03:59:13;4.00;72.10
69595;DHT22;56800;52.142;5.364;2023-02-28T04:01:48;4.00;72.10
69595;DHT22;56800;52.142;5.364;2023-02-28T04:04:16;4.10;72.10
69595;DHT22;56800;52.142;5.364;2023-02-28T04:06:43;4.00;72.00
69595;DHT22;56800;52.142;5.364;2023-02-28T04:09:12;4.00;72.00
69595;DHT22;56800;52.142;5.364;2023-02-28T04:11:40;4.10;71.90
69595;DHT22;56800;52.142;5.364;2023-02-28T04:14:09;4.00;71.80
69595;DHT22;56800;52.142;5.364;2023-02-28T04:16:38;4.10;71.70
69595;DHT22;56800;52.142;5.364;2023-02-28T04:19:07;4.00;71.60
69595;DHT22;56800;52.142;5.364;2023-02-28T04:21:37;4.00;71.60
69595;DHT22;56800;52.142;5.364;2023-02-28T04:24:06;4.00;71.40
69595;DHT22;56800;52.142;5.364;2023-02-28T04:26:35;4.00;71.40
69595;DHT22;56800;52.142;5.364;2023-02-28T04:29:04;4.00;71.30
69595;DHT22;56800;52.142;5.364;2023-02-28T04:31:31;4.00;71.40
69595;DHT22;56800;52.142;5.364;2023-02-28T04:33:59;4.00;71.20
69595;DHT22;56800;52.142;5.364;2023-02-28T04:36:26;4.00;70.80
69595;DHT22;56800;52.142;5.364;2023-02-28T04:38:53;3.90;70.40
69595;DHT22;56800;52.142;5.364;2023-02-28T04:41:21;3.90;70.00
69595;DHT22;56800;52.142;5.364;2023-02-28T04:43:50;3.90;69.60
69595;DHT22;56800;52.142;5.364;2023-02-28T04:46:17;3.80;70.30
69595;DHT22;56800;52.142;5.364;2023-02-28T04:48:44;3.80;69.40
69595;DHT22;56800;52.142;5.364;2023-02-28T04:51:14;3.80;69.10
69595;DHT22;56800;52.142;5.364;2023-02-28T04:53:42;3.80;69.00
69595;DHT22;56800;52.142;5.364;2023-02-28T04:56:12;3.80;69.00
69595;DHT22;56800;52.142;5.364;2023-02-28T04:58:39;3.70;68.80
69595;DHT22;56800;52.142;5.364;2023-02-28T05:01:19;3.70;68.80
69595;DHT22;56800;52.142;5.364;2023-02-28T05:03:46;3.80;68.70
69595;DHT22;56800;52.142;5.364;2023-02-28T05:06:13;3.70;68.50
69595;DHT22;56800;52.142;5.364;2023-02-28T05:08:40;3.70;68.40
69595;DHT22;56800;52.142;5.364;2023-02-28T05:13:45;3.60;68.20
69595;DHT22;56800;52.142;5.364;2023-02-28T05:16:12;3.60;68.20
69595;DHT22;56800;52.142;5.364;2023-02-28T05:18:39;3.50;68.20
69595;DHT22;56800;52.142;5.364;2023-02-28T05:21:23;3.50;68.30
69595;DHT22;56800;52.142;5.364;2023-02-28T05:23:51;3.50;68.50
69595;DHT22;56800;52.142;5.364;2023-02-28T05:26:19;3.40;68.60
69595;DHT22;56800;52.142;5.364;2023-02-28T05:28:46;3.40;68.80
69595;DHT22;56800;52.142;5.364;2023-02-28T05:31:13;3.40;69.00
69595;DHT22;56800;52.142;5.364;2023-02-28T05:33:40;3.40;69.20
69595;DHT22;56800;52.142;5.364;2023-02-28T05:36:07;3.30;69.30
69595;DHT22;56800;52.142;5.364;2023-02-28T05:38:34;3.30;69.60
69595;DHT22;56800;52.142;5.364;2023-02-28T05:41:10;3.30;69.80
69595;DHT22;56800;52.142;5.364;2023-02-28T05:43:37;3.20;70.00
69595;DHT22;56800;52.142;5.364;2023-02-28T05:46:09;3.20;70.30
69595;DHT22;56800;52.142;5.364;2023-02-28T05:48:38;3.10;70.40
69595;DHT22;56800;52.142;5.364;2023-02-28T05:51:06;3.10;70.60
69595;DHT22;56800;52.142;5.364;2023-02-28T05:53:34;3.00;70.80
69595;DHT22;56800;52.142;5.364;2023-02-28T05:56:01;3.00;70.90
69595;DHT22;56800;52.142;5.364;2023-02-28T05:58:28;3.00;71.20
69595;DHT22;56800;52.142;5.364;2023-02-28T06:00:58;2.90;72.00
69595;DHT22;56800;52.142;5.364;2023-02-28T06:03:26;2.90;71.50
69595;DHT22;56800;52.142;5.364;2023-02-28T06:05:53;2.90;71.60
69595;DHT22;56800;52.142;5.364;2023-02-28T06:08:20;2.90;71.80
69595;DHT22;56800;52.142;5.364;2023-02-28T06:10:47;2.90;71.90
69595;DHT22;56800;52.142;5.364;2023-02-28T06:13:14;2.80;72.00
69595;DHT22;56800;52.142;5.364;2023-02-28T06:15:40;2.80;72.10
69595;DHT22;56800;52.142;5.364;2023-02-28T06:18:07;2.80;72.20
69595;DHT22;56800;52.142;5.364;2023-02-28T06:20:34;2.80;72.30
69595;DHT22;56800;52.142;5.364;2023-02-28T06:23:02;2.80;72.50
69595;DHT22;56800;52.142;5.364;2023-02-28T06:25:29;2.80;72.50
69595;DHT22;56800;52.142;5.364;2023-02-28T06:27:56;2.80;72.70
69595;DHT22;56800;52.142;5.364;2023-02-28T06:30:23;2.80;72.70
69595;DHT22;56800;52.142;5.364;2023-02-28T06:32:54;2.80;72.80
69595;DHT22;56800;52.142;5.364;2023-02-28T06:35:21;2.80;72.90
69595;DHT22;56800;52.142;5.364;2023-02-28T06:37:48;2.80;73.00
69595;DHT22;56800;52.142;5.364;2023-02-28T06:40:15;2.80;73.10
69595;DHT22;56800;52.142;5.364;2023-02-28T06:42:41;2.80;73.20
69595;DHT22;56800;52.142;5.364;2023-02-28T06:45:09;2.80;73.30
69595;DHT22;56800;52.142;5.364;2023-02-28T06:47:37;2.80;73.30
69595;DHT22;56800;52.142;5.364;2023-02-28T06:50:06;2.80;74.10
69595;DHT22;56800;52.142;5.364;2023-02-28T06:52:33;2.80;73.40
69595;DHT22;56800;52.142;5.364;2023-02-28T06:55:06;2.80;73.50
69595;DHT22;56800;52.142;5.364;2023-02-28T06:57:34;2.90;74.00
69595;DHT22;56800;52.142;5.364;2023-02-28T07:00:06;2.90;73.70
69595;DHT22;56800;52.142;5.364;2023-02-28T07:02:35;2.90;73.70
69595;DHT22;56800;52.142;5.364;2023-02-28T07:05:05;2.90;73.80
69595;DHT22;56800;52.142;5.364;2023-02-28T07:07:32;2.90;73.80
69595;DHT22;56800;52.142;5.364;2023-02-28T07:09:59;2.90;73.90
69595;DHT22;56800;52.142;5.364;2023-02-28T07:12:26;2.90;74.00
69595;DHT22;56800;52.142;5.364;2023-02-28T07:14:52;2.90;74.00
69595;DHT22;56800;52.142;5.364;2023-02-28T07:17:20;2.90;73.90
69595;DHT22;56800;52.142;5.364;2023-02-28T07:19:47;2.90;73.90
69595;DHT22;56800;52.142;5.364;2023-02-28T07:22:14;2.90;73.90
69595;DHT22;56800;52.142;5.364;2023-02-28T07:24:41;2.90;73.90
69595;DHT22;56800;52.142;5.364;2023-02-28T07:27:08;2.90;74.00
69595;DHT22;56800;52.142;5.364;2023-02-28T07:29:35;2.90;74.10
69595;DHT22;56800;52.142;5.364;2023-02-28T07:32:01;2.90;74.10
69595;DHT22;56800;52.142;5.364;2023-02-28T07:34:28;2.90;74.10
69595;DHT22;56800;52.142;5.364;2023-02-28T07:36:55;2.90;74.20
69595;DHT22;56800;52.142;5.364;2023-02-28T07:39:22;3.00;74.30
69595;DHT22;56800;52.142;5.364;2023-02-28T07:41:49;3.00;74.40
69595;DHT22;56800;52.142;5.364;2023-02-28T07:44:16;3.00;74.40
69595;DHT22;56800;52.142;5.364;2023-02-28T07:46:42;3.00;74.40
69595;DHT22;56800;52.142;5.364;2023-02-28T07:49:09;3.00;74.30
69595;DHT22;56800;52.142;5.364;2023-02-28T07:51:36;3.00;74.40
69595;DHT22;56800;52.142;5.364;2023-02-28T07:54:03;3.10;74.60
69595;DHT22;56800;52.142;5.364;2023-02-28T07:56:30;3.10;74.60
69595;DHT22;56800;52.142;5.364;2023-02-28T07:58:57;3.10;74.70
69595;DHT22;56800;52.142;5.364;2023-02-28T08:01:24;3.10;74.80
69595;DHT22;56800;52.142;5.364;2023-02-28T08:03:51;3.10;74.80
69595;DHT22;56800;52.142;5.364;2023-02-28T08:06:20;3.20;74.80
69595;DHT22;56800;52.142;5.364;2023-02-28T08:08:48;3.20;74.80
69595;DHT22;56800;52.142;5.364;2023-02-28T08:11:15;3.30;74.80
69595;DHT22;56800;52.142;5.364;2023-02-28T08:13:43;3.30;74.90
69595;DHT22;56800;52.142;5.364;2023-02-28T08:16:12;3.30;74.90
69595;DHT22;56800;52.142;5.364;2023-02-28T08:18:42;3.30;74.90
69595;DHT22;56800;52.142;5.364;2023-02-28T08:21:09;3.40;75.10
69595;DHT22;56800;52.142;5.364;2023-02-28T08:23:36;3.40;75.10
69595;DHT22;56800;52.142;5.364;2023-02-28T08:26:04;3.50;75.10
69595;DHT22;56800;52.142;5.364;2023-02-28T08:28:31;3.50;75.10
69595;DHT22;56800;52.142;5.364;2023-02-28T08:30:58;3.50;75.10
69595;DHT22;56800;52.142;5.364;2023-02-28T08:33:25;3.50;75.00
69595;DHT22;56800;52.142;5.364;2023-02-28T08:35:56;3.60;75.10
69595;DHT22;56800;52.142;5.364;2023-02-28T08:38:23;3.70;75.10
69595;DHT22;56800;52.142;5.364;2023-02-28T08:40:57;3.80;75.10
69595;DHT22;56800;52.142;5.364;2023-02-28T08:43:25;3.80;74.90
69595;DHT22;56800;52.142;5.364;2023-02-28T08:45:55;3.80;74.70
69595;DHT22;56800;52.142;5.364;2023-02-28T08:48:26;3.90;75.30
69595;DHT22;56800;52.142;5.364;2023-02-28T08:51:02;3.90;74.30
69595;DHT22;56800;52.142;5.364;2023-02-28T08:53:37;3.90;74.10
69595;DHT22;56800;52.142;5.364;2023-02-28T08:56:07;3.90;74.00
69595;DHT22;56800;52.142;5.364;2023-02-28T08:58:34;3.90;73.90
69595;DHT22;56800;52.142;5.364;2023-02-28T09:01:11;4.00;74.50
69595;DHT22;56800;52.142;5.364;2023-02-28T09:03:41;4.00;73.50
69595;DHT22;56800;52.142;5.364;2023-02-28T09:06:12;4.00;73.40
69595;DHT22;56800;52.142;5.364;2023-02-28T09:08:40;4.00;73.40
69595;DHT22;56800;52.142;5.364;2023-02-28T09:11:07;4.10;73.40
69595;DHT22;56800;52.142;5.364;2023-02-28T09:13:35;4.10;73.30
69595;DHT22;56800;52.142;5.364;2023-02-28T09:16:04;4.20;73.20
69595;DHT22;56800;52.142;5.364;2023-02-28T09:18:34;4.20;72.90
69595;DHT22;56800;52.142;5.364;2023-02-28T09:21:15;4.60;74.30
69595;DHT22;56800;52.142;5.364;2023-02-28T09:23:45;5.00;73.40
69595;DHT22;56800;52.142;5.364;2023-02-28T09:26:25;5.50;72.90
69595;DHT22;56800;52.142;5.364;2023-02-28T09:29:05;5.90;71.60
69595;DHT22;56800;52.142;5.364;2023-02-28T09:31:45;6.40;69.70
69595;DHT22;56800;52.142;5.364;2023-02-28T09:34:12;6.80;68.40
69595;DHT22;56800;52.142;5.364;2023-02-28T09:36:40;7.20;67.80
69595;DHT22;56800;52.142;5.364;2023-02-28T09:39:22;7.80;67.60
69595;DHT22;56800;52.142;5.364;2023-02-28T09:41:51;9.00;66.40
69595;DHT22;56800;52.142;5.364;2023-02-28T09:44:42;10.70;63.40
69595;DHT22;56800;52.142;5.364;2023-02-28T09:49:46;11.40;55.00
69595;DHT22;56800;52.142;5.364;2023-02-28T09:52:23;11.10;53.80
69595;DHT22;56800;52.142;5.364;2023-02-28T09:54:52;10.70;53.80
69595;DHT22;56800;52.142;5.364;2023-02-28T09:57:34;10.20;53.90
69595;DHT22;56800;52.142;5.364;2023-02-28T10:00:18;9.70;53.70
69595;DHT22;56800;52.142;5.364;2023-02-28T10:06:06;8.90;53.80
69595;DHT22;56800;52.142;5.364;2023-02-28T10:08:51;8.70;54.40
69595;DHT22;56800;52.142;5.364;2023-02-28T10:11:20;8.50;54.90
69595;DHT22;56800;52.142;5.364;2023-02-28T10:13:53;8.40;54.90
69595;DHT22;56800;52.142;5.364;2023-02-28T10:24:45;8.50;53.20
69595;DHT22;56800;52.142;5.364;2023-02-28T10:27:28;9.50;52.30
69595;DHT22;56800;52.142;5.364;2023-02-28T10:29:58;10.50;49.10
69595;DHT22;56800;52.142;5.364;2023-02-28T10:32:30;11.50;46.90
69595;DHT22;56800;52.142;5.364;2023-02-28T10:35:18;12.20;44.90
69595;DHT22;56800;52.142;5.364;2023-02-28T10:37:47;12.30;39.90
69595;DHT22;56800;52.142;5.364;2023-02-28T10:53:33;13.70;40.10
69595;DHT22;56800;52.142;5.364;2023-02-28T10:56:23;13.90;40.10
69595;DHT22;56800;52.142;5.364;2023-02-28T10:59:22;14.20;40.00
69595;DHT22;56800;52.142;5.364;2023-02-28T11:01:50;14.20;37.70
69595;DHT22;56800;52.142;5.364;2023-02-28T11:09:31;13.80;37.80
69595;DHT22;56800;52.142;5.364;2023-02-28T11:12:00;13.50;38.30
69595;DHT22;56800;52.142;5.364;2023-02-28T11:14:31;13.30;38.00
69595;DHT22;56800;52.142;5.364;2023-02-28T11:17:14;13.00;38.80
69595;DHT22;56800;52.142;5.364;2023-02-28T11:19:46;12.80;40.20
69595;DHT22;56800;52.142;5.364;2023-02-28T11:22:25;12.80;40.90
69595;DHT22;56800;52.142;5.364;2023-02-28T11:24:59;12.60;39.80
69595;DHT22;56800;52.142;5.364;2023-02-28T11:29:58;12.20;40.40
69595;DHT22;56800;52.142;5.364;2023-02-28T11:32:28;12.10;40.70
69595;DHT22;56800;52.142;5.364;2023-02-28T11:37:37;11.60;39.70
69595;DHT22;56800;52.142;5.364;2023-02-28T11:40:16;11.50;40.80
69595;DHT22;56800;52.142;5.364;2023-02-28T11:45:22;11.30;40.80
69595;DHT22;56800;52.142;5.364;2023-02-28T11:48:01;11.30;41.00
69595;DHT22;56800;52.142;5.364;2023-02-28T11:53:03;11.50;41.50
69595;DHT22;56800;52.142;5.364;2023-02-28T11:55:39;11.50;40.70
69595;DHT22;56800;52.142;5.364;2023-02-28T12:01:09;11.50;40.10
69595;DHT22;56800;52.142;5.364;2023-02-28T12:04:01;11.50;39.60
69595;DHT22;56800;52.142;5.364;2023-02-28T12:06:58;11.50;39.60
69595;DHT22;56800;52.142;5.364;2023-02-28T12:12:54;11.60;39.30
69595;DHT22;56800;52.142;5.364;2023-02-28T12:15:33;11.70;39.70
69595;DHT22;56800;52.142;5.364;2023-02-28T12:21:11;11.90;39.90
69595;DHT22;56800;52.142;5.364;2023-02-28T12:26:46;12.30;38.70
69595;DHT22;56800;52.142;5.364;2023-02-28T12:29:28;12.50;39.20
69595;DHT22;56800;52.142;5.364;2023-02-28T12:31:59;12.70;39.20
69595;DHT22;56800;52.142;5.364;2023-02-28T12:34:36;12.80;37.10
69595;DHT22;56800;52.142;5.364;2023-02-28T12:37:09;12.80;37.00
69595;DHT22;56800;52.142;5.364;2023-02-28T12:39:41;13.00;38.30
69595;DHT22;56800;52.142;5.364;2023-02-28T12:42:28;13.20;38.50
69595;DHT22;56800;52.142;5.364;2023-02-28T12:45:02;13.40;37.90
69595;DHT22;56800;52.142;5.364;2023-02-28T12:47:31;13.60;37.20
69595;DHT22;56800;52.142;5.364;2023-02-28T12:50:09;13.70;36.90
69595;DHT22;56800;52.142;5.364;2023-02-28T12:52:51;13.60;35.70
69595;DHT22;56800;52.142;5.364;2023-02-28T12:55:41;13.70;36.00
69595;DHT22;56800;52.142;5.364;2023-02-28T13:03:33;13.90;35.50
69595;DHT22;56800;52.142;5.364;2023-02-28T13:09:09;13.80;35.60
69595;DHT22;56800;52.142;5.364;2023-02-28T13:11:42;13.80;35.20
69595;DHT22;56800;52.142;5.364;2023-02-28T13:14:28;13.70;35.70
69595;DHT22;56800;52.142;5.364;2023-02-28T13:17:02;13.70;35.10
69595;DHT22;56800;52.142;5.364;2023-02-28T13:22:17;13.50;35.20
69595;DHT22;56800;52.142;5.364;2023-02-28T13:24:49;13.40;35.10
69595;DHT22;56800;52.142;5.364;2023-02-28T13:27:38;13.20;35.20
69595;DHT22;56800;52.142;5.364;2023-02-28T13:38:55;12.80;35.60
69595;DHT22;56800;52.142;5.364;2023-02-28T13:44:06;12.70;35.50
69595;DHT22;56800;52.142;5.364;2023-02-28T13:46:36;12.50;35.30
69595;DHT22;56800;52.142;5.364;2023-02-28T13:52:18;12.30;35.70
69595;DHT22;56800;52.142;5.364;2023-02-28T13:57:57;11.90;35.40
69595;DHT22;56800;52.142;5.364;2023-02-28T14:06:50;11.30;35.50
69595;DHT22;56800;52.142;5.364;2023-02-28T14:09:31;11.10;36.40
69595;DHT22;56800;52.142;5.364;2023-02-28T14:15:04;11.10;37.60
69595;DHT22;56800;52.142;5.364;2023-02-28T14:17:52;11.00;37.10
69595;DHT22;56800;52.142;5.364;2023-02-28T14:20:21;10.90;37.50
69595;DHT22;56800;52.142;5.364;2023-02-28T14:23:06;10.80;37.40
69595;DHT22;56800;52.142;5.364;2023-02-28T14:31:23;10.40;37.60
69595;DHT22;56800;52.142;5.364;2023-02-28T14:36:39;10.30;37.90
69595;DHT22;56800;52.142;5.364;2023-02-28T14:41:40;10.10;38.20
69595;DHT22;56800;52.142;5.364;2023-02-28T14:44:16;10.00;38.40
69595;DHT22;56800;52.142;5.364;2023-02-28T14:46:45;9.90;38.60
69595;DHT22;56800;52.142;5.364;2023-02-28T14:49:37;9.90;38.50
69595;DHT22;56800;52.142;5.364;2023-02-28T14:52:21;9.70;38.00
69595;DHT22;56800;52.142;5.364;2023-02-28T14:57:29;9.50;38.70
69595;DHT22;56800;52.142;5.364;2023-02-28T15:00:03;9.50;39.00
69595;DHT22;56800;52.142;5.364;2023-02-28T15:02:34;9.50;39.80
69595;DHT22;56800;52.142;5.364;2023-02-28T15:05:20;9.40;39.80
69595;DHT22;56800;52.142;5.364;2023-02-28T15:07:59;9.40;39.30
69595;DHT22;56800;52.142;5.364;2023-02-28T15:10:27;9.30;39.30
69595;DHT22;56800;52.142;5.364;2023-02-28T15:13:00;9.20;39.00
69595;DHT22;56800;52.142;5.364;2023-02-28T15:15:48;9.20;39.50
69595;DHT22;56800;52.142;5.364;2023-02-28T15:18:33;9.20;39.70
69595;DHT22;56800;52.142;5.364;2023-02-28T15:21:06;9.10;40.20
69595;DHT22;56800;52.142;5.364;2023-02-28T15:23:36;9.10;39.40
69595;DHT22;56800;52.142;5.364;2023-02-28T15:26:03;9.00;39.10
69595;DHT22;56800;52.142;5.364;2023-02-28T15:28:31;8.90;39.40
69595;DHT22;56800;52.142;5.364;2023-02-28T15:31:03;8.80;39.60
69595;DHT22;56800;52.142;5.364;2023-02-28T15:33:55;8.80;39.70
69595;DHT22;56800;52.142;5.364;2023-02-28T15:36:26;8.70;39.60
69595;DHT22;56800;52.142;5.364;2023-02-28T15:38:55;8.70;39.80
69595;DHT22;56800;52.142;5.364;2023-02-28T15:41:37;8.60;39.60
69595;DHT22;56800;52.142;5.364;2023-02-28T15:44:27;8.60;39.40
69595;DHT22;56800;52.142;5.364;2023-02-28T15:47:02;8.50;39.10
69595;DHT22;56800;52.142;5.364;2023-02-28T15:49:40;8.40;39.80
69595;DHT22;56800;52.142;5.364;2023-02-28T15:52:26;8.40;40.00
69595;DHT22;56800;52.142;5.364;2023-02-28T15:54:54;8.40;40.80
69595;DHT22;56800;52.142;5.364;2023-02-28T15:57:23;8.30;40.90
69595;DHT22;56800;52.142;5.364;2023-02-28T15:59:56;8.30;41.40
69595;DHT22;56800;52.142;5.364;2023-02-28T16:02:34;8.30;41.70
69595;DHT22;56800;52.142;5.364;2023-02-28T16:07:36;8.20;42.00
69595;DHT22;56800;52.142;5.364;2023-02-28T16:10:03;8.10;42.10
69595;DHT22;56800;52.142;5.364;2023-02-28T16:12:34;8.10;42.00
69595;DHT22;56800;52.142;5.364;2023-02-28T16:15:06;8.10;42.20
69595;DHT22;56800;52.142;5.364;2023-02-28T16:17:35;8.10;42.10
69595;DHT22;56800;52.142;5.364;2023-02-28T16:20:15;8.00;42.50
69595;DHT22;56800;52.142;5.364;2023-02-28T16:22:42;7.90;42.70
69595;DHT22;56800;52.142;5.364;2023-02-28T16:25:14;7.90;42.70
69595;DHT22;56800;52.142;5.364;2023-02-28T16:27:42;7.80;42.70
69595;DHT22;56800;52.142;5.364;2023-02-28T16:30:29;7.70;42.60
69595;DHT22;56800;52.142;5.364;2023-02-28T16:32:59;7.70;42.60
69595;DHT22;56800;52.142;5.364;2023-02-28T16:35:26;7.60;43.10
69595;DHT22;56800;52.142;5.364;2023-02-28T16:37:53;7.60;43.20
69595;DHT22;56800;52.142;5.364;2023-02-28T16:40:24;7.50;43.20
69595;DHT22;56800;52.142;5.364;2023-02-28T16:42:54;7.40;43.10
69595;DHT22;56800;52.142;5.364;2023-02-28T16:45:27;7.40;43.60
69595;DHT22;56800;52.142;5.364;2023-02-28T16:47:55;7.30;43.50
69595;DHT22;56800;52.142;5.364;2023-02-28T16:50:27;7.30;43.90
69595;DHT22;56800;52.142;5.364;2023-02-28T16:52:54;7.20;44.30
69595;DHT22;56800;52.142;5.364;2023-02-28T16:55:23;7.10;44.40
69595;DHT22;56800;52.142;5.364;2023-02-28T16:57:54;7.10;44.60
69595;DHT22;56800;52.142;5.364;2023-02-28T17:00:21;7.00;45.00
69595;DHT22;56800;52.142;5.364;2023-02-28T17:02:48;6.90;45.10
69595;DHT22;56800;52.142;5.364;2023-02-28T17:05:15;6.90;45.20
69595;DHT22;56800;52.142;5.364;2023-02-28T17:07:43;6.90;45.40
69595;DHT22;56800;52.142;5.364;2023-02-28T17:10:22;6.70;45.50
69595;DHT22;56800;52.142;5.364;2023-02-28T17:12:49;6.70;45.50
69595;DHT22;56800;52.142;5.364;2023-02-28T17:15:18;6.70;45.70
69595;DHT22;56800;52.142;5.364;2023-02-28T17:17:46;6.60;45.90
69595;DHT22;56800;52.142;5.364;2023-02-28T17:20:18;6.50;46.00
69595;DHT22;56800;52.142;5.364;2023-02-28T17:22:52;6.40;46.30
69595;DHT22;56800;52.142;5.364;2023-02-28T17:25:20;6.40;46.90
69595;DHT22;56800;52.142;5.364;2023-02-28T17:27:47;6.30;47.00
69595;DHT22;56800;52.142;5.364;2023-02-28T17:30:26;6.30;47.10
69595;DHT22;56800;52.142;5.364;2023-02-28T17:32:56;6.20;47.70
69595;DHT22;56800;52.142;5.364;2023-02-28T17:35:23;6.20;48.10
69595;DHT22;56800;52.142;5.364;2023-02-28T17:37:50;6.10;48.20
69595;DHT22;56800;52.142;5.364;2023-02-28T17:40:20;6.00;48.40
69595;DHT22;56800;52.142;5.364;2023-02-28T17:42:46;5.90;48.70
69595;DHT22;56800;52.142;5.364;2023-02-28T17:45:14;5.90;49.00
69595;DHT22;56800;52.142;5.364;2023-02-28T17:47:43;5.80;49.20
69595;DHT22;56800;52.142;5.364;2023-02-28T17:50:17;5.70;49.30
69595;DHT22;56800;52.142;5.364;2023-02-28T17:52:45;5.70;49.70
69595;DHT22;56800;52.142;5.364;2023-02-28T17:55:12;5.60;49.80
69595;DHT22;56800;52.142;5.364;2023-02-28T17:57:40;5.60;50.10
69595;DHT22;56800;52.142;5.364;2023-02-28T18:00:11;5.50;50.10
69595;DHT22;56800;52.142;5.364;2023-02-28T18:02:38;5.50;50.20
69595;DHT22;56800;52.142;5.364;2023-02-28T18:05:05;5.40;50.20
69595;DHT22;56800;52.142;5.364;2023-02-28T18:07:32;5.30;50.40
69595;DHT22;56800;52.142;5.364;2023-02-28T18:09:59;5.30;50.70
69595;DHT22;56800;52.142;5.364;2023-02-28T18:12:26;5.20;51.10
69595;DHT22;56800;52.142;5.364;2023-02-28T18:14:52;5.20;51.20
69595;DHT22;56800;52.142;5.364;2023-02-28T18:17:19;5.10;51.10
69595;DHT22;56800;52.142;5.364;2023-02-28T18:19:46;5.10;51.10
69595;DHT22;56800;52.142;5.364;2023-02-28T18:22:13;5.10;51.20
69595;DHT22;56800;52.142;5.364;2023-02-28T18:24:39;5.00;51.40
69595;DHT22;56800;52.142;5.364;2023-02-28T18:27:06;4.90;51.20
69595;DHT22;56800;52.142;5.364;2023-02-28T18:29:33;4.90;51.40